sensor_id;sensor_type;location;lat;lon;timestamp;P1;durP1;ratioP1;P2;durP2;ratioP2
75858;SDS011;64504;51.308;8.620;2023-02-28T00:01:04;4.65;;;3.05;;
75858;SDS011;64504;51.308;8.620;2023-02-28T00:03:30;3.83;;;2.80;;
75858;SDS011;64504;51.308;8.620;2023-02-28T00:05:55;2.75;;;2.53;;
75858;SDS011;64504;51.308;8.620;2023-02-28T00:08:22;4.05;;;2.35;;
75858;SDS011;64504;51.308;8.620;2023-02-28T00:10:47;3.25;;;2.58;;
75858;SDS011;64504;51.308;8.620;2023-02-28T00:13:13;6.45;;;3.05;;
75858;SDS011;64504;51.308;8.620;2023-02-28T00:15:38;2.78;;;2.58;;
75858;SDS011;64504;51.308;8.620;2023-02-28T00:18:04;6.68;;;3.08;;
75858;SDS011;64504;51.308;8.620;2023-02-28T00:20:29;2.78;;;2.58;;
75858;SDS011;64504;51.308;8.620;2023-02-28T00:22:56;3.22;;;2.65;;
75858;SDS011;64504;51.308;8.620;2023-02-28T00:25:22;4.55;;;2.17;;
75858;SDS011;64504;51.308;8.620;2023-02-28T00:27:49;2.95;;;2.75;;
75858;SDS011;64504;51.308;8.620;2023-02-28T00:30:16;3.13;;;2.22;;
75858;SDS011;64504;51.308;8.620;2023-02-28T00:32:43;2.70;;;2.50;;
75858;SDS011;64504;51.308;8.620;2023-02-28T00:35:09;2.42;;;2.25;;
75858;SDS011;64504;51.308;8.620;2023-02-28T00:37:35;2.70;;;2.33;;
75858;SDS011;64504;51.308;8.620;2023-02-28T00:40:00;3.17;;;2.03;;
75858;SDS011;64504;51.308;8.620;2023-02-28T00:42:26;4.43;;;2.42;;
75858;SDS011;64504;51.308;8.620;2023-02-28T00:44:52;2.92;;;2.30;;
75858;SDS011;64504;51.308;8.620;2023-02-28T00:47:19;2.90;;;2.60;;
75858;SDS011;64504;51.308;8.620;2023-02-28T00:49:44;2.63;;;2.42;;
75858;SDS011;64504;51.308;8.620;2023-02-28T00:52:10;2.83;;;2.25;;
75858;SDS011;64504;51.308;8.620;2023-02-28T00:54:35;5.60;;;2.65;;
75858;SDS011;64504;51.308;8.620;2023-02-28T00:57:03;2.95;;;2.72;;
75858;SDS011;64504;51.308;8.620;2023-02-28T00:59:29;4.00;;;1.83;;
75858;SDS011;64504;51.308;8.620;2023-02-28T01:01:56;2.30;;;1.55;;
75858;SDS011;64504;51.308;8.620;2023-02-28T01:04:21;6.28;;;2.28;;
75858;SDS011;64504;51.308;8.620;2023-02-28T01:06:47;9.85;;;2.75;;
75858;SDS011;64504;51.308;8.620;2023-02-28T01:09:12;4.28;;;2.30;;
75858;SDS011;64504;51.308;8.620;2023-02-28T01:11:38;2.08;;;1.45;;
75858;SDS011;64504;51.308;8.620;2023-02-28T01:14:05;2.03;;;1.83;;
75858;SDS011;64504;51.308;8.620;2023-02-28T01:16:31;3.90;;;2.25;;
75858;SDS011;64504;51.308;8.620;2023-02-28T01:18:56;2.53;;;2.10;;
75858;SDS011;64504;51.308;8.620;2023-02-28T01:21:22;3.15;;;2.63;;
75858;SDS011;64504;51.308;8.620;2023-02-28T01:23:48;4.50;;;2.33;;
75858;SDS011;64504;51.308;8.620;2023-02-28T01:26:15;2.67;;;1.85;;
75858;SDS011;64504;51.308;8.620;2023-02-28T01:28:43;3.75;;;3.08;;
75858;SDS011;64504;51.308;8.620;2023-02-28T01:31:09;3.10;;;2.83;;
75858;SDS011;64504;51.308;8.620;2023-02-28T01:33:35;2.60;;;2.40;;
75858;SDS011;64504;51.308;8.620;2023-02-28T01:36:05;5.05;;;3.00;;
75858;SDS011;64504;51.308;8.620;2023-02-28T01:38:31;3.50;;;2.65;;
75858;SDS011;64504;51.308;8.620;2023-02-28T01:40:57;3.08;;;2.55;;
75858;SDS011;64504;51.308;8.620;2023-02-28T01:43:24;2.60;;;2.38;;
75858;SDS011;64504;51.308;8.620;2023-02-28T01:45:52;3.13;;;2.25;;
75858;SDS011;64504;51.308;8.620;2023-02-28T01:48:19;3.85;;;3.13;;
75858;SDS011;64504;51.308;8.620;2023-02-28T01:50:51;2.65;;;2.45;;
75858;SDS011;64504;51.308;8.620;2023-02-28T01:53:19;3.38;;;2.45;;
75858;SDS011;64504;51.308;8.620;2023-02-28T01:55:48;3.17;;;2.75;;
75858;SDS011;64504;51.308;8.620;2023-02-28T01:58:15;3.00;;;2.63;;
75858;SDS011;64504;51.308;8.620;2023-02-28T02:00:41;3.28;;;2.97;;
75858;SDS011;64504;51.308;8.620;2023-02-28T02:03:11;2.05;;;1.88;;
75858;SDS011;64504;51.308;8.620;2023-02-28T02:05:39;17.02;;;3.00;;
75858;SDS011;64504;51.308;8.620;2023-02-28T02:08:08;5.32;;;3.78;;
75858;SDS011;64504;51.308;8.620;2023-02-28T02:10:40;2.88;;;2.67;;
75858;SDS011;64504;51.308;8.620;2023-02-28T02:18:53;4.63;;;3.10;;
75858;SDS011;64504;51.308;8.620;2023-02-28T02:24:33;3.03;;;2.35;;
75858;SDS011;64504;51.308;8.620;2023-02-28T02:35:40;2.30;;;2.13;;
75858;SDS011;64504;51.308;8.620;2023-02-28T02:38:10;2.72;;;2.42;;
75858;SDS011;64504;51.308;8.620;2023-02-28T02:41:02;3.40;;;3.10;;
75858;SDS011;64504;51.308;8.620;2023-02-28T02:48:57;2.40;;;2.28;;
75858;SDS011;64504;51.308;8.620;2023-02-28T02:51:25;3.25;;;2.95;;
75858;SDS011;64504;51.308;8.620;2023-02-28T02:53:55;3.15;;;2.30;;
75858;SDS011;64504;51.308;8.620;2023-02-28T02:56:24;3.85;;;3.55;;
75858;SDS011;64504;51.308;8.620;2023-02-28T02:58:51;4.03;;;3.13;;
75858;SDS011;64504;51.308;8.620;2023-02-28T03:01:19;4.35;;;3.03;;
75858;SDS011;64504;51.308;8.620;2023-02-28T03:04:02;4.30;;;2.90;;
75858;SDS011;64504;51.308;8.620;2023-02-28T03:06:33;6.38;;;3.38;;
75858;SDS011;64504;51.308;8.620;2023-02-28T03:08:59;3.15;;;2.95;;
75858;SDS011;64504;51.308;8.620;2023-02-28T03:11:25;2.47;;;2.28;;
75858;SDS011;64504;51.308;8.620;2023-02-28T03:16:56;2.75;;;2.55;;
75858;SDS011;64504;51.308;8.620;2023-02-28T03:19:42;3.38;;;2.72;;
75858;SDS011;64504;51.308;8.620;2023-02-28T03:25:04;3.03;;;2.53;;
75858;SDS011;64504;51.308;8.620;2023-02-28T03:33:19;3.30;;;2.78;;
75858;SDS011;64504;51.308;8.620;2023-02-28T03:35:50;2.47;;;2.28;;
75858;SDS011;64504;51.308;8.620;2023-02-28T03:38:20;2.55;;;2.35;;
75858;SDS011;64504;51.308;8.620;2023-02-28T03:40:50;2.63;;;2.10;;
75858;SDS011;64504;51.308;8.620;2023-02-28T03:43:20;5.10;;;3.30;;
75858;SDS011;64504;51.308;8.620;2023-02-28T03:45:48;2.53;;;2.35;;
75858;SDS011;64504;51.308;8.620;2023-02-28T03:48:20;2.55;;;2.35;;
75858;SDS011;64504;51.308;8.620;2023-02-28T03:50:49;4.30;;;2.75;;
75858;SDS011;64504;51.308;8.620;2023-02-28T03:56:05;2.83;;;2.63;;
75858;SDS011;64504;51.308;8.620;2023-02-28T04:01:21;3.08;;;1.83;;
75858;SDS011;64504;51.308;8.620;2023-02-28T04:03:53;2.78;;;2.03;;
75858;SDS011;64504;51.308;8.620;2023-02-28T04:06:19;3.30;;;2.53;;
75858;SDS011;64504;51.308;8.620;2023-02-28T04:08:46;2.05;;;1.95;;
75858;SDS011;64504;51.308;8.620;2023-02-28T04:13:40;4.13;;;2.83;;
75858;SDS011;64504;51.308;8.620;2023-02-28T04:16:09;3.00;;;2.78;;
75858;SDS011;64504;51.308;8.620;2023-02-28T04:18:38;2.88;;;2.67;;
75858;SDS011;64504;51.308;8.620;2023-02-28T04:21:04;4.30;;;2.80;;
75858;SDS011;64504;51.308;8.620;2023-02-28T04:23:30;2.92;;;2.67;;
75858;SDS011;64504;51.308;8.620;2023-02-28T04:25:55;2.85;;;2.60;;
75858;SDS011;64504;51.308;8.620;2023-02-28T04:28:20;3.40;;;2.67;;
75858;SDS011;64504;51.308;8.620;2023-02-28T04:30:46;3.60;;;2.95;;
75858;SDS011;64504;51.308;8.620;2023-02-28T04:33:11;3.90;;;3.30;;
75858;SDS011;64504;51.308;8.620;2023-02-28T04:35:37;2.28;;;2.10;;
75858;SDS011;64504;51.308;8.620;2023-02-28T04:38:02;4.55;;;2.55;;
75858;SDS011;64504;51.308;8.620;2023-02-28T04:40:28;2.10;;;1.98;;
75858;SDS011;64504;51.308;8.620;2023-02-28T04:42:53;2.38;;;2.15;;
75858;SDS011;64504;51.308;8.620;2023-02-28T04:45:18;2.45;;;2.25;;
75858;SDS011;64504;51.308;8.620;2023-02-28T04:47:44;2.88;;;2.55;;
75858;SDS011;64504;51.308;8.620;2023-02-28T04:50:09;4.13;;;3.83;;
75858;SDS011;64504;51.308;8.620;2023-02-28T04:52:35;8.23;;;3.28;;
75858;SDS011;64504;51.308;8.620;2023-02-28T04:55:00;4.47;;;3.00;;
75858;SDS011;64504;51.308;8.620;2023-02-28T04:57:26;3.35;;;3.00;;
75858;SDS011;64504;51.308;8.620;2023-02-28T04:59:52;3.85;;;2.80;;
75858;SDS011;64504;51.308;8.620;2023-02-28T05:02:17;4.00;;;2.58;;
75858;SDS011;64504;51.308;8.620;2023-02-28T05:04:42;2.80;;;2.63;;
75858;SDS011;64504;51.308;8.620;2023-02-28T05:07:08;3.17;;;2.15;;
75858;SDS011;64504;51.308;8.620;2023-02-28T05:09:34;2.55;;;2.45;;
75858;SDS011;64504;51.308;8.620;2023-02-28T05:12:00;10.93;;;2.75;;
75858;SDS011;64504;51.308;8.620;2023-02-28T05:14:25;2.58;;;2.38;;
75858;SDS011;64504;51.308;8.620;2023-02-28T05:16:51;4.75;;;3.05;;
75858;SDS011;64504;51.308;8.620;2023-02-28T05:19:16;5.22;;;2.35;;
75858;SDS011;64504;51.308;8.620;2023-02-28T05:21:52;2.90;;;2.15;;
75858;SDS011;64504;51.308;8.620;2023-02-28T05:24:18;2.58;;;2.38;;
75858;SDS011;64504;51.308;8.620;2023-02-28T05:26:51;4.03;;;3.03;;
75858;SDS011;64504;51.308;8.620;2023-02-28T05:29:17;2.85;;;2.47;;
75858;SDS011;64504;51.308;8.620;2023-02-28T05:31:43;2.60;;;2.40;;
75858;SDS011;64504;51.308;8.620;2023-02-28T05:34:08;2.47;;;2.33;;
75858;SDS011;64504;51.308;8.620;2023-02-28T05:36:36;2.33;;;2.08;;
75858;SDS011;64504;51.308;8.620;2023-02-28T05:39:04;4.10;;;2.67;;
75858;SDS011;64504;51.308;8.620;2023-02-28T05:41:31;4.05;;;2.78;;
75858;SDS011;64504;51.308;8.620;2023-02-28T05:43:57;4.05;;;2.10;;
75858;SDS011;64504;51.308;8.620;2023-02-28T05:46:22;3.03;;;2.35;;
75858;SDS011;64504;51.308;8.620;2023-02-28T05:48:48;2.55;;;2.35;;
75858;SDS011;64504;51.308;8.620;2023-02-28T05:51:14;1.70;;;1.60;;
75858;SDS011;64504;51.308;8.620;2023-02-28T05:53:40;3.03;;;2.35;;
75858;SDS011;64504;51.308;8.620;2023-02-28T05:56:05;4.00;;;3.30;;
75858;SDS011;64504;51.308;8.620;2023-02-28T05:58:31;6.88;;;2.72;;
75858;SDS011;64504;51.308;8.620;2023-02-28T06:00:57;3.83;;;2.30;;
75858;SDS011;64504;51.308;8.620;2023-02-28T06:03:23;3.10;;;2.78;;
75858;SDS011;64504;51.308;8.620;2023-02-28T06:05:49;2.42;;;2.20;;
75858;SDS011;64504;51.308;8.620;2023-02-28T06:08:15;3.50;;;2.40;;
75858;SDS011;64504;51.308;8.620;2023-02-28T06:10:41;2.70;;;2.50;;
75858;SDS011;64504;51.308;8.620;2023-02-28T06:13:06;1.85;;;1.75;;
75858;SDS011;64504;51.308;8.620;2023-02-28T06:15:32;2.28;;;2.08;;
75858;SDS011;64504;51.308;8.620;2023-02-28T06:17:57;2.47;;;2.10;;
75858;SDS011;64504;51.308;8.620;2023-02-28T06:20:23;1.63;;;1.52;;
75858;SDS011;64504;51.308;8.620;2023-02-28T06:22:49;2.97;;;2.50;;
75858;SDS011;64504;51.308;8.620;2023-02-28T06:25:19;1.85;;;1.75;;
75858;SDS011;64504;51.308;8.620;2023-02-28T06:27:44;1.90;;;1.67;;
75858;SDS011;64504;51.308;8.620;2023-02-28T06:30:10;2.55;;;1.58;;
75858;SDS011;64504;51.308;8.620;2023-02-28T06:32:36;4.85;;;3.03;;
75858;SDS011;64504;51.308;8.620;2023-02-28T06:35:02;2.05;;;1.85;;
75858;SDS011;64504;51.308;8.620;2023-02-28T06:37:28;2.95;;;2.10;;
75858;SDS011;64504;51.308;8.620;2023-02-28T06:39:55;2.80;;;2.60;;
75858;SDS011;64504;51.308;8.620;2023-02-28T06:42:21;2.65;;;2.42;;
75858;SDS011;64504;51.308;8.620;2023-02-28T06:44:49;2.55;;;2.35;;
75858;SDS011;64504;51.308;8.620;2023-02-28T06:47:15;1.80;;;1.70;;
75858;SDS011;64504;51.308;8.620;2023-02-28T06:49:41;3.08;;;2.78;;
75858;SDS011;64504;51.308;8.620;2023-02-28T06:52:06;6.22;;;2.10;;
75858;SDS011;64504;51.308;8.620;2023-02-28T06:54:31;2.30;;;2.10;;
75858;SDS011;64504;51.308;8.620;2023-02-28T06:56:57;13.57;;;6.53;;
75858;SDS011;64504;51.308;8.620;2023-02-28T06:59:23;16.63;;;7.68;;
75858;SDS011;64504;51.308;8.620;2023-02-28T07:01:49;38.78;;;19.13;;
75858;SDS011;64504;51.308;8.620;2023-02-28T07:04:14;47.03;;;19.95;;
75858;SDS011;64504;51.308;8.620;2023-02-28T07:06:39;86.75;;;37.28;;
75858;SDS011;64504;51.308;8.620;2023-02-28T07:09:05;61.25;;;26.42;;
75858;SDS011;64504;51.308;8.620;2023-02-28T07:11:30;38.08;;;16.08;;
75858;SDS011;64504;51.308;8.620;2023-02-28T07:13:56;26.13;;;14.50;;
75858;SDS011;64504;51.308;8.620;2023-02-28T07:16:27;7.68;;;6.03;;
75858;SDS011;64504;51.308;8.620;2023-02-28T07:18:53;8.23;;;3.70;;
75858;SDS011;64504;51.308;8.620;2023-02-28T07:21:19;5.57;;;3.88;;
75858;SDS011;64504;51.308;8.620;2023-02-28T07:23:44;4.00;;;3.33;;
75858;SDS011;64504;51.308;8.620;2023-02-28T07:26:14;7.25;;;3.60;;
75858;SDS011;64504;51.308;8.620;2023-02-28T07:28:42;3.95;;;3.33;;
75858;SDS011;64504;51.308;8.620;2023-02-28T07:31:09;3.25;;;2.92;;
75858;SDS011;64504;51.308;8.620;2023-02-28T07:33:35;3.20;;;2.88;;
75858;SDS011;64504;51.308;8.620;2023-02-28T07:36:05;5.50;;;3.70;;
75858;SDS011;64504;51.308;8.620;2023-02-28T07:38:36;5.90;;;3.47;;
75858;SDS011;64504;51.308;8.620;2023-02-28T07:41:02;4.60;;;2.70;;
75858;SDS011;64504;51.308;8.620;2023-02-28T07:43:31;4.88;;;3.78;;
75858;SDS011;64504;51.308;8.620;2023-02-28T07:46:01;5.10;;;3.10;;
75858;SDS011;64504;51.308;8.620;2023-02-28T07:48:31;4.53;;;3.78;;
75858;SDS011;64504;51.308;8.620;2023-02-28T07:50:57;4.05;;;3.22;;
75858;SDS011;64504;51.308;8.620;2023-02-28T07:53:23;2.88;;;2.60;;
75858;SDS011;64504;51.308;8.620;2023-02-28T07:55:49;3.45;;;2.50;;
75858;SDS011;64504;51.308;8.620;2023-02-28T07:58:14;2.35;;;2.25;;
75858;SDS011;64504;51.308;8.620;2023-02-28T08:00:39;3.92;;;2.85;;
75858;SDS011;64504;51.308;8.620;2023-02-28T08:03:05;3.35;;;2.90;;
75858;SDS011;64504;51.308;8.620;2023-02-28T08:05:30;4.80;;;3.47;;
75858;SDS011;64504;51.308;8.620;2023-02-28T08:07:56;6.57;;;3.80;;
75858;SDS011;64504;51.308;8.620;2023-02-28T08:10:22;6.03;;;3.08;;
75858;SDS011;64504;51.308;8.620;2023-02-28T08:12:47;3.15;;;2.85;;
75858;SDS011;64504;51.308;8.620;2023-02-28T08:15:12;4.25;;;3.63;;
75858;SDS011;64504;51.308;8.620;2023-02-28T08:17:38;4.40;;;3.53;;
75858;SDS011;64504;51.308;8.620;2023-02-28T08:20:04;4.55;;;3.42;;
75858;SDS011;64504;51.308;8.620;2023-02-28T08:22:29;3.80;;;3.50;;
75858;SDS011;64504;51.308;8.620;2023-02-28T08:24:55;7.32;;;3.50;;
75858;SDS011;64504;51.308;8.620;2023-02-28T08:27:20;5.82;;;2.67;;
75858;SDS011;64504;51.308;8.620;2023-02-28T08:29:47;5.05;;;2.83;;
75858;SDS011;64504;51.308;8.620;2023-02-28T08:32:12;3.65;;;2.90;;
75858;SDS011;64504;51.308;8.620;2023-02-28T08:34:39;4.22;;;2.88;;
75858;SDS011;64504;51.308;8.620;2023-02-28T08:37:05;5.05;;;3.60;;
75858;SDS011;64504;51.308;8.620;2023-02-28T08:39:33;3.25;;;3.00;;
75858;SDS011;64504;51.308;8.620;2023-02-28T08:42:00;3.08;;;2.80;;
75858;SDS011;64504;51.308;8.620;2023-02-28T08:44:25;4.18;;;3.53;;
75858;SDS011;64504;51.308;8.620;2023-02-28T08:46:52;4.10;;;2.20;;
75858;SDS011;64504;51.308;8.620;2023-02-28T08:49:17;2.75;;;2.30;;
75858;SDS011;64504;51.308;8.620;2023-02-28T08:51:43;4.93;;;2.40;;
75858;SDS011;64504;51.308;8.620;2023-02-28T08:54:09;2.58;;;2.38;;
75858;SDS011;64504;51.308;8.620;2023-02-28T08:56:37;3.50;;;2.33;;
75858;SDS011;64504;51.308;8.620;2023-02-28T08:59:03;6.75;;;3.60;;
75858;SDS011;64504;51.308;8.620;2023-02-28T09:01:29;2.00;;;1.58;;
75858;SDS011;64504;51.308;8.620;2023-02-28T09:03:55;2.42;;;1.83;;
75858;SDS011;64504;51.308;8.620;2023-02-28T09:06:22;5.45;;;2.63;;
75858;SDS011;64504;51.308;8.620;2023-02-28T09:08:49;1.95;;;1.75;;
75858;SDS011;64504;51.308;8.620;2023-02-28T09:11:14;2.60;;;2.38;;
75858;SDS011;64504;51.308;8.620;2023-02-28T09:13:40;2.13;;;1.65;;
75858;SDS011;64504;51.308;8.620;2023-02-28T09:16:07;4.60;;;1.95;;
75858;SDS011;64504;51.308;8.620;2023-02-28T09:18:34;1.98;;;1.48;;
75858;SDS011;64504;51.308;8.620;2023-02-28T09:21:05;2.83;;;2.15;;
75858;SDS011;64504;51.308;8.620;2023-02-28T09:23:32;2.50;;;1.60;;
75858;SDS011;64504;51.308;8.620;2023-02-28T09:25:59;2.78;;;1.88;;
75858;SDS011;64504;51.308;8.620;2023-02-28T09:28:24;2.10;;;1.80;;
75858;SDS011;64504;51.308;8.620;2023-02-28T09:30:51;4.07;;;2.40;;
75858;SDS011;64504;51.308;8.620;2023-02-28T09:33:18;2.47;;;2.25;;
75858;SDS011;64504;51.308;8.620;2023-02-28T09:35:47;1.67;;;1.58;;
75858;SDS011;64504;51.308;8.620;2023-02-28T09:38:13;2.92;;;2.30;;
75858;SDS011;64504;51.308;8.620;2023-02-28T09:40:51;3.45;;;2.28;;
75858;SDS011;64504;51.308;8.620;2023-02-28T09:43:20;2.28;;;2.08;;
75858;SDS011;64504;51.308;8.620;2023-02-28T09:45:59;2.70;;;1.95;;
75858;SDS011;64504;51.308;8.620;2023-02-28T09:48:35;3.47;;;2.58;;
75858;SDS011;64504;51.308;8.620;2023-02-28T09:51:05;2.10;;;1.65;;
75858;SDS011;64504;51.308;8.620;2023-02-28T09:53:37;1.75;;;1.65;;
75858;SDS011;64504;51.308;8.620;2023-02-28T09:56:06;1.27;;;1.20;;
75858;SDS011;64504;51.308;8.620;2023-02-28T10:01:12;2.58;;;1.98;;
75858;SDS011;64504;51.308;8.620;2023-02-28T10:04:08;2.78;;;1.67;;
75858;SDS011;64504;51.308;8.620;2023-02-28T10:06:48;1.37;;;1.27;;
75858;SDS011;64504;51.308;8.620;2023-02-28T10:09:18;2.55;;;2.35;;
75858;SDS011;64504;51.308;8.620;2023-02-28T10:11:56;2.05;;;1.95;;
75858;SDS011;64504;51.308;8.620;2023-02-28T10:14:29;2.05;;;1.88;;
75858;SDS011;64504;51.308;8.620;2023-02-28T10:17:02;2.03;;;1.83;;
75858;SDS011;64504;51.308;8.620;2023-02-28T10:19:38;4.32;;;3.00;;
75858;SDS011;64504;51.308;8.620;2023-02-28T10:22:16;1.90;;;1.70;;
75858;SDS011;64504;51.308;8.620;2023-02-28T10:25:18;1.52;;;1.42;;
75858;SDS011;64504;51.308;8.620;2023-02-28T10:27:45;2.72;;;2.15;;
75858;SDS011;64504;51.308;8.620;2023-02-28T10:30:11;3.03;;;2.35;;
75858;SDS011;64504;51.308;8.620;2023-02-28T10:32:39;5.72;;;2.22;;
75858;SDS011;64504;51.308;8.620;2023-02-28T10:35:20;3.65;;;2.10;;
75858;SDS011;64504;51.308;8.620;2023-02-28T10:37:55;2.40;;;2.20;;
75858;SDS011;64504;51.308;8.620;2023-02-28T10:45:22;2.80;;;2.60;;
75858;SDS011;64504;51.308;8.620;2023-02-28T10:48:02;2.75;;;2.53;;
75858;SDS011;64504;51.308;8.620;2023-02-28T10:50:36;3.58;;;2.40;;
75858;SDS011;64504;51.308;8.620;2023-02-28T10:56:01;2.20;;;1.95;;
75858;SDS011;64504;51.308;8.620;2023-02-28T10:58:32;3.00;;;2.67;;
75858;SDS011;64504;51.308;8.620;2023-02-28T11:01:21;2.47;;;2.33;;
75858;SDS011;64504;51.308;8.620;2023-02-28T11:03:47;4.90;;;2.78;;
75858;SDS011;64504;51.308;8.620;2023-02-28T11:06:23;4.63;;;1.95;;
75858;SDS011;64504;51.308;8.620;2023-02-28T11:08:54;3.10;;;2.17;;
75858;SDS011;64504;51.308;8.620;2023-02-28T11:11:21;2.88;;;2.17;;
75858;SDS011;64504;51.308;8.620;2023-02-28T11:13:50;2.53;;;2.20;;
75858;SDS011;64504;51.308;8.620;2023-02-28T11:16:17;4.97;;;2.10;;
75858;SDS011;64504;51.308;8.620;2023-02-28T11:21:20;3.17;;;2.78;;
75858;SDS011;64504;51.308;8.620;2023-02-28T11:23:57;3.17;;;2.50;;
75858;SDS011;64504;51.308;8.620;2023-02-28T11:26:39;1.88;;;1.77;;
75858;SDS011;64504;51.308;8.620;2023-02-28T11:29:29;2.80;;;2.30;;
75858;SDS011;64504;51.308;8.620;2023-02-28T11:32:04;2.85;;;2.45;;
75858;SDS011;64504;51.308;8.620;2023-02-28T11:34:34;3.10;;;1.73;;
75858;SDS011;64504;51.308;8.620;2023-02-28T11:36:59;11.77;;;2.25;;
75858;SDS011;64504;51.308;8.620;2023-02-28T11:39:26;4.78;;;2.95;;
75858;SDS011;64504;51.308;8.620;2023-02-28T11:50:01;4.20;;;2.67;;
75858;SDS011;64504;51.308;8.620;2023-02-28T11:58:23;4.50;;;3.17;;
75858;SDS011;64504;51.308;8.620;2023-02-28T12:01:13;2.75;;;2.55;;
75858;SDS011;64504;51.308;8.620;2023-02-28T12:16:56;3.95;;;2.85;;
75858;SDS011;64504;51.308;8.620;2023-02-28T12:22:14;4.80;;;4.40;;
75858;SDS011;64504;51.308;8.620;2023-02-28T12:27:41;6.10;;;4.68;;
75858;SDS011;64504;51.308;8.620;2023-02-28T12:33:08;4.47;;;4.05;;
75858;SDS011;64504;51.308;8.620;2023-02-28T12:35:37;5.93;;;3.90;;
75858;SDS011;64504;51.308;8.620;2023-02-28T12:38:13;7.00;;;5.03;;
75858;SDS011;64504;51.308;8.620;2023-02-28T12:43:42;7.05;;;4.22;;
75858;SDS011;64504;51.308;8.620;2023-02-28T12:46:12;4.60;;;3.95;;
75858;SDS011;64504;51.308;8.620;2023-02-28T12:48:44;3.67;;;3.38;;
75858;SDS011;64504;51.308;8.620;2023-02-28T12:51:12;11.18;;;4.30;;
75858;SDS011;64504;51.308;8.620;2023-02-28T13:10:21;5.82;;;3.85;;
75858;SDS011;64504;51.308;8.620;2023-02-28T13:12:47;7.00;;;4.50;;
75858;SDS011;64504;51.308;8.620;2023-02-28T13:15:26;10.05;;;5.45;;
75858;SDS011;64504;51.308;8.620;2023-02-28T13:17:57;8.98;;;4.55;;
75858;SDS011;64504;51.308;8.620;2023-02-28T13:20:35;4.22;;;3.85;;
75858;SDS011;64504;51.308;8.620;2023-02-28T13:23:01;8.30;;;5.10;;
75858;SDS011;64504;51.308;8.620;2023-02-28T13:28:00;10.88;;;4.60;;
75858;SDS011;64504;51.308;8.620;2023-02-28T13:33:28;5.75;;;5.15;;
75858;SDS011;64504;51.308;8.620;2023-02-28T13:36:21;5.80;;;4.78;;
75858;SDS011;64504;51.308;8.620;2023-02-28T13:38:51;5.65;;;4.78;;
75858;SDS011;64504;51.308;8.620;2023-02-28T13:44:06;4.18;;;3.78;;
75858;SDS011;64504;51.308;8.620;2023-02-28T13:46:33;4.05;;;3.58;;
75858;SDS011;64504;51.308;8.620;2023-02-28T14:06:10;5.63;;;5.10;;
75858;SDS011;64504;51.308;8.620;2023-02-28T14:08:44;5.32;;;4.82;;
75858;SDS011;64504;51.308;8.620;2023-02-28T14:11:24;5.80;;;5.30;;
75858;SDS011;64504;51.308;8.620;2023-02-28T14:13:52;9.10;;;5.30;;
75858;SDS011;64504;51.308;8.620;2023-02-28T14:16:26;9.55;;;4.25;;
75858;SDS011;64504;51.308;8.620;2023-02-28T14:18:56;7.22;;;6.22;;
75858;SDS011;64504;51.308;8.620;2023-02-28T14:21:36;5.43;;;4.13;;
75858;SDS011;64504;51.308;8.620;2023-02-28T14:34:49;5.18;;;4.78;;
75858;SDS011;64504;51.308;8.620;2023-02-28T14:37:27;6.20;;;5.03;;
75858;SDS011;64504;51.308;8.620;2023-02-28T14:39:55;6.50;;;5.35;;
75858;SDS011;64504;51.308;8.620;2023-02-28T14:42:39;6.07;;;5.50;;
75858;SDS011;64504;51.308;8.620;2023-02-28T14:45:19;4.35;;;4.05;;
75858;SDS011;64504;51.308;8.620;2023-02-28T14:47:45;7.10;;;5.50;;
75858;SDS011;64504;51.308;8.620;2023-02-28T14:50:21;5.75;;;4.85;;
75858;SDS011;64504;51.308;8.620;2023-02-28T14:52:50;7.05;;;5.55;;
75858;SDS011;64504;51.308;8.620;2023-02-28T14:55:18;8.32;;;5.03;;
75858;SDS011;64504;51.308;8.620;2023-02-28T14:57:53;8.75;;;5.22;;
75858;SDS011;64504;51.308;8.620;2023-02-28T15:00:24;6.07;;;5.43;;
75858;SDS011;64504;51.308;8.620;2023-02-28T15:02:52;7.10;;;4.93;;
75858;SDS011;64504;51.308;8.620;2023-02-28T15:05:32;7.30;;;5.90;;
75858;SDS011;64504;51.308;8.620;2023-02-28T15:08:12;6.28;;;5.65;;
75858;SDS011;64504;51.308;8.620;2023-02-28T15:10:41;8.43;;;5.32;;
75858;SDS011;64504;51.308;8.620;2023-02-28T15:13:24;5.57;;;5.10;;
75858;SDS011;64504;51.308;8.620;2023-02-28T15:15:57;18.27;;;7.13;;
75858;SDS011;64504;51.308;8.620;2023-02-28T15:20:51;8.18;;;5.65;;
75858;SDS011;64504;51.308;8.620;2023-02-28T15:23:19;7.53;;;5.13;;
75858;SDS011;64504;51.308;8.620;2023-02-28T15:25:45;8.82;;;5.25;;
75858;SDS011;64504;51.308;8.620;2023-02-28T15:28:13;5.65;;;5.15;;
75858;SDS011;64504;51.308;8.620;2023-02-28T15:30:49;5.05;;;4.55;;
75858;SDS011;64504;51.308;8.620;2023-02-28T15:33:21;7.68;;;5.13;;
75858;SDS011;64504;51.308;8.620;2023-02-28T15:35:48;5.82;;;5.22;;
75858;SDS011;64504;51.308;8.620;2023-02-28T15:40:51;5.47;;;4.93;;
75858;SDS011;64504;51.308;8.620;2023-02-28T15:43:25;5.32;;;4.82;;
75858;SDS011;64504;51.308;8.620;2023-02-28T15:51:41;9.65;;;5.60;;
75858;SDS011;64504;51.308;8.620;2023-02-28T15:54:07;6.60;;;6.00;;
75858;SDS011;64504;51.308;8.620;2023-02-28T15:59:02;6.22;;;5.25;;
75858;SDS011;64504;51.308;8.620;2023-02-28T16:01:29;6.18;;;5.30;;
75858;SDS011;64504;51.308;8.620;2023-02-28T16:03:59;6.82;;;6.20;;
75858;SDS011;64504;51.308;8.620;2023-02-28T16:06:36;5.43;;;4.93;;
75858;SDS011;64504;51.308;8.620;2023-02-28T16:09:10;6.50;;;5.88;;
75858;SDS011;64504;51.308;8.620;2023-02-28T16:11:41;8.13;;;6.28;;
75858;SDS011;64504;51.308;8.620;2023-02-28T16:14:12;6.20;;;5.60;;
75858;SDS011;64504;51.308;8.620;2023-02-28T16:16:44;5.30;;;4.80;;
75858;SDS011;64504;51.308;8.620;2023-02-28T16:19:11;5.45;;;4.95;;
75858;SDS011;64504;51.308;8.620;2023-02-28T16:21:36;6.03;;;5.20;;
75858;SDS011;64504;51.308;8.620;2023-02-28T16:24:02;5.13;;;4.63;;
75858;SDS011;64504;51.308;8.620;2023-02-28T16:26:27;7.40;;;5.15;;
75858;SDS011;64504;51.308;8.620;2023-02-28T16:28:53;7.60;;;5.78;;
75858;SDS011;64504;51.308;8.620;2023-02-28T16:31:18;5.82;;;5.30;;
75858;SDS011;64504;51.308;8.620;2023-02-28T16:33:46;7.05;;;6.10;;
75858;SDS011;64504;51.308;8.620;2023-02-28T16:36:31;7.65;;;5.35;;
75858;SDS011;64504;51.308;8.620;2023-02-28T16:38:56;6.78;;;6.05;;
75858;SDS011;64504;51.308;8.620;2023-02-28T16:41:23;7.47;;;6.35;;
75858;SDS011;64504;51.308;8.620;2023-02-28T16:43:51;7.70;;;5.25;;
75858;SDS011;64504;51.308;8.620;2023-02-28T16:46:19;7.97;;;5.97;;
75858;SDS011;64504;51.308;8.620;2023-02-28T16:48:45;11.98;;;7.53;;
75858;SDS011;64504;51.308;8.620;2023-02-28T16:51:15;14.75;;;10.48;;
75858;SDS011;64504;51.308;8.620;2023-02-28T16:53:41;12.68;;;11.45;;
75858;SDS011;64504;51.308;8.620;2023-02-28T16:56:19;9.10;;;7.28;;
75858;SDS011;64504;51.308;8.620;2023-02-28T16:58:46;17.17;;;12.00;;
75858;SDS011;64504;51.308;8.620;2023-02-28T17:01:12;10.77;;;8.88;;
75858;SDS011;64504;51.308;8.620;2023-02-28T17:03:38;11.35;;;8.15;;
75858;SDS011;64504;51.308;8.620;2023-02-28T17:06:12;19.58;;;16.98;;
75858;SDS011;64504;51.308;8.620;2023-02-28T17:08:50;12.60;;;9.70;;
75858;SDS011;64504;51.308;8.620;2023-02-28T17:11:16;15.45;;;10.30;;
75858;SDS011;64504;51.308;8.620;2023-02-28T17:13:42;42.53;;;24.42;;
75858;SDS011;64504;51.308;8.620;2023-02-28T17:16:17;40.13;;;26.55;;
75858;SDS011;64504;51.308;8.620;2023-02-28T17:19:14;42.13;;;23.33;;
75858;SDS011;64504;51.308;8.620;2023-02-28T17:21:41;32.05;;;17.98;;
75858;SDS011;64504;51.308;8.620;2023-02-28T17:24:07;39.42;;;24.95;;
75858;SDS011;64504;51.308;8.620;2023-02-28T17:26:33;23.20;;;15.88;;
75858;SDS011;64504;51.308;8.620;2023-02-28T17:28:59;13.32;;;8.45;;
75858;SDS011;64504;51.308;8.620;2023-02-28T17:31:25;16.20;;;9.65;;
75858;SDS011;64504;51.308;8.620;2023-02-28T17:33:51;16.27;;;8.02;;
75858;SDS011;64504;51.308;8.620;2023-02-28T17:36:21;9.73;;;7.88;;